createdAt,value
2019-01-23T00:00:41.676Z,-2.43
2019-01-23T00:03:46.874Z,-2.46
2019-01-23T00:06:54.308Z,-2.43
2019-01-23T00:09:59.454Z,-2.43
2019-01-23T00:13:04.683Z,-2.41
2019-01-23T00:16:09.807Z,-2.43
2019-01-23T00:19:14.943Z,-2.33
2019-01-23T00:22:20.968Z,-2.42
2019-01-23T00:25:26.114Z,-2.38
2019-01-23T00:28:31.321Z,-2.25
2019-01-23T00:31:36.456Z,-2.34
2019-01-23T00:34:41.583Z,-2.36
2019-01-23T00:37:46.677Z,-2.32
2019-01-23T00:40:51.860Z,-2.36
2019-01-23T00:43:56.976Z,-2.44
2019-01-23T00:47:02.164Z,-2.39
2019-01-23T00:50:08.129Z,-2.36
2019-01-23T00:53:13.243Z,-2.36
2019-01-23T00:56:18.388Z,-2.41
2019-01-23T00:59:23.514Z,-2.37
2019-01-23T01:02:28.616Z,-2.41
2019-01-23T01:05:33.883Z,-2.46
2019-01-23T01:08:39.068Z,-2.36
2019-01-23T01:11:44.271Z,-2.44
2019-01-23T01:14:49.361Z,-2.41
2019-01-23T01:17:54.631Z,-2.35
2019-01-23T01:20:59.811Z,-2.35
2019-01-23T01:24:04.892Z,-2.40
2019-01-23T01:27:10.155Z,-2.37
2019-01-23T01:30:20.963Z,-2.38
2019-01-23T01:33:26.123Z,-2.40
2019-01-23T01:36:31.283Z,-2.38
2019-01-23T01:39:36.421Z,-2.46
2019-01-23T01:42:41.584Z,-2.47
2019-01-23T01:45:46.731Z,-2.30
2019-01-23T01:48:51.890Z,-2.48
2019-01-23T01:51:57.034Z,-2.46
2019-01-23T01:55:02.321Z,-2.51
2019-01-23T01:58:10.224Z,-2.45
2019-01-23T02:01:14.327Z,-2.49
2019-01-23T02:04:19.493Z,-2.44
2019-01-23T02:07:24.682Z,-2.48
2019-01-23T02:10:29.839Z,-2.50
2019-01-23T02:13:35.166Z,-2.41
2019-01-23T02:16:40.406Z,-2.43
2019-01-23T02:19:45.512Z,-2.38
2019-01-23T02:22:50.643Z,-2.38
2019-01-23T02:25:56.148Z,-2.42
2019-01-23T02:29:01.338Z,-2.43
2019-01-23T02:32:06.460Z,-2.40
2019-01-23T02:35:11.600Z,-2.43
2019-01-23T02:38:16.726Z,-2.45
2019-01-23T02:41:21.958Z,-2.39
2019-01-23T02:44:27.124Z,-2.40
2019-01-23T02:47:32.294Z,-2.41
2019-01-23T02:50:37.382Z,-2.36
2019-01-23T02:53:42.537Z,-2.33
2019-01-23T02:56:47.680Z,-2.31
2019-01-23T02:59:52.877Z,-2.30
2019-01-23T03:02:57.942Z,-2.23
2019-01-23T03:06:03.157Z,-2.26
2019-01-23T03:09:09.054Z,-2.39
2019-01-23T03:12:14.279Z,-2.36
2019-01-23T03:15:19.686Z,-2.33
2019-01-23T03:18:25.006Z,-2.39
2019-01-23T03:21:30.117Z,-2.26
2019-01-23T03:24:35.261Z,-2.30
2019-01-23T03:27:40.384Z,-2.29
2019-01-23T03:30:45.544Z,-2.27
2019-01-23T03:33:50.825Z,-2.32
2019-01-23T03:36:55.962Z,-2.34
2019-01-23T03:40:01.127Z,-2.31
2019-01-23T03:43:06.426Z,-2.30
2019-01-23T03:46:11.604Z,-2.32
2019-01-23T03:49:16.767Z,-2.25
2019-01-23T03:52:21.964Z,-2.22
2019-01-23T03:55:27.143Z,-2.21
2019-01-23T03:58:32.375Z,-2.27
2019-01-23T04:01:37.514Z,-2.21
2019-01-23T04:04:42.641Z,-2.27
2019-01-23T04:07:47.829Z,-2.25
2019-01-23T04:10:52.947Z,-2.31
2019-01-23T04:13:58.164Z,-2.25
2019-01-23T04:17:03.293Z,-2.27
2019-01-23T04:20:16.498Z,-2.17
2019-01-23T04:23:21.602Z,-2.37
2019-01-23T04:26:26.756Z,-2.22
2019-01-23T04:29:31.833Z,-2.27
2019-01-23T04:32:37.026Z,-2.31
2019-01-23T04:35:42.163Z,-2.19
2019-01-23T04:38:47.303Z,-2.37
2019-01-23T04:41:52.520Z,-2.39
2019-01-23T04:44:57.575Z,-2.35
2019-01-23T04:48:02.742Z,-2.28
2019-01-23T04:51:39.214Z,-2.26
2019-01-23T04:54:44.379Z,-2.36
2019-01-23T04:57:49.545Z,-2.27
2019-01-23T05:00:54.790Z,-2.35
2019-01-23T05:03:59.926Z,-2.37
2019-01-23T05:07:05.047Z,-2.46
2019-01-23T05:10:10.503Z,-2.46
2019-01-23T05:13:15.610Z,-2.37
2019-01-23T05:16:20.787Z,-2.40
2019-01-23T05:19:25.937Z,-2.46
2019-01-23T05:22:31.079Z,-2.49
2019-01-23T05:25:36.177Z,-2.29
2019-01-23T05:28:41.423Z,-2.35
2019-01-23T05:31:46.590Z,-2.47
2019-01-23T05:34:51.756Z,-2.46
2019-01-23T05:37:56.946Z,-2.51
2019-01-23T05:41:02.204Z,-2.38
2019-01-23T05:44:07.324Z,-2.41
2019-01-23T05:47:12.451Z,-2.42
2019-01-23T05:50:17.944Z,-2.47
2019-01-23T05:53:23.183Z,-2.44
2019-01-23T05:56:28.385Z,-2.54
2019-01-23T05:59:33.516Z,-2.45
2019-01-23T06:02:38.624Z,-2.53
2019-01-23T06:05:43.876Z,-2.57
2019-01-23T06:08:49.041Z,-2.56
2019-01-23T06:11:54.201Z,-2.58
2019-01-23T06:14:59.362Z,-2.65
2019-01-23T06:18:04.484Z,-2.57
2019-01-23T06:21:09.669Z,-2.52
2019-01-23T06:24:14.840Z,-2.57
2019-01-23T06:27:19.999Z,-2.62
2019-01-23T06:30:26.334Z,-2.50
2019-01-23T06:33:31.483Z,-2.65
2019-01-23T06:36:36.591Z,-2.60
2019-01-23T06:39:41.845Z,-2.64
2019-01-23T06:42:46.988Z,-2.69
2019-01-23T06:45:52.139Z,-2.65
2019-01-23T06:48:57.277Z,-2.70
2019-01-23T06:52:02.473Z,-2.67
2019-01-23T06:55:08.347Z,-2.74
2019-01-23T06:58:13.633Z,-2.64
2019-01-23T07:01:18.760Z,-2.69
2019-01-23T07:04:23.991Z,-2.62
2019-01-23T07:07:29.112Z,-2.69
2019-01-23T07:10:34.366Z,-2.66
2019-01-23T07:13:39.646Z,-2.84
2019-01-23T07:16:44.763Z,-2.77
2019-01-23T07:19:49.857Z,-2.74
2019-01-23T07:22:55.170Z,-2.84
2019-01-23T07:26:00.320Z,-2.79
2019-01-23T07:29:05.548Z,-2.75
2019-01-23T07:32:10.643Z,-2.88
2019-01-23T07:35:15.902Z,-2.84
2019-01-23T07:38:21.022Z,-2.75
2019-01-23T07:41:26.146Z,-2.77
2019-01-23T07:44:31.285Z,-2.81
2019-01-23T07:47:36.466Z,-2.93
2019-01-23T07:50:41.564Z,-2.78
2019-01-23T07:53:46.741Z,-2.92
2019-01-23T07:56:51.861Z,-2.84
2019-01-23T07:59:57.084Z,-2.87
2019-01-23T08:03:02.341Z,-2.82
2019-01-23T08:06:07.478Z,-2.87
2019-01-23T08:09:12.594Z,-2.91
2019-01-23T08:12:17.775Z,-2.68
2019-01-23T08:15:31.131Z,-2.85
2019-01-23T08:18:36.221Z,-2.81
2019-01-23T08:21:41.343Z,-2.74
2019-01-23T08:24:46.475Z,-2.88
2019-01-23T08:27:51.640Z,-2.88
2019-01-23T08:30:56.764Z,-2.86
2019-01-23T08:34:01.919Z,-2.79
2019-01-23T08:37:07.125Z,-2.73
2019-01-23T08:40:13.495Z,-2.79
2019-01-23T08:43:18.707Z,-2.77
2019-01-23T08:46:23.829Z,-2.78
2019-01-23T08:49:29.069Z,-2.75
2019-01-23T08:52:34.315Z,-2.64
2019-01-23T08:55:39.492Z,-2.66
2019-01-23T08:58:44.683Z,-2.79
2019-01-23T09:01:49.795Z,-2.66
2019-01-23T09:04:54.996Z,-2.66
2019-01-23T09:08:08.659Z,-2.61
2019-01-23T09:11:13.816Z,-2.57
2019-01-23T09:14:19.029Z,-2.51
2019-01-23T09:17:24.215Z,-2.48
2019-01-23T09:20:29.418Z,-2.58
2019-01-23T09:23:34.540Z,-2.51
2019-01-23T09:26:39.713Z,-2.56
2019-01-23T09:29:44.964Z,-2.56
2019-01-23T09:33:05.348Z,-2.55
2019-01-23T09:36:40.867Z,-2.49
2019-01-23T09:40:14.031Z,-2.52
2019-01-23T09:43:57.277Z,-2.48
2019-01-23T09:47:17.399Z,-2.43
2019-01-23T09:51:09.870Z,-2.41
2019-01-23T09:54:16.361Z,-2.36
2019-01-23T09:57:21.709Z,-2.40
2019-01-23T10:00:31.822Z,-2.30
2019-01-23T10:03:35.744Z,-2.31
2019-01-23T10:06:40.899Z,-2.34
2019-01-23T10:09:46.017Z,-2.35
2019-01-23T10:12:51.172Z,-2.38
2019-01-23T10:16:09.401Z,-2.46
2019-01-23T10:19:14.522Z,-2.32
2019-01-23T10:22:19.687Z,-2.26
2019-01-23T10:25:24.870Z,-2.21
2019-01-23T10:28:29.997Z,-2.17
2019-01-23T10:31:35.248Z,-2.31
2019-01-23T10:34:40.362Z,-2.12
2019-01-23T10:37:45.499Z,-2.33
2019-01-23T10:40:50.632Z,-2.30
2019-01-23T10:43:55.792Z,-2.17
2019-01-23T10:47:00.967Z,-1.98
2019-01-23T10:50:07.058Z,-2.14
2019-01-23T10:53:12.175Z,-2.23
2019-01-23T10:56:17.312Z,-2.43
2019-01-23T10:59:22.511Z,-2.48
2019-01-23T11:02:27.838Z,-2.31
2019-01-23T11:05:33.067Z,-2.32
2019-01-23T11:08:38.309Z,-2.28
2019-01-23T11:11:43.456Z,-2.42
2019-01-23T11:14:48.602Z,-2.16
2019-01-23T11:17:53.708Z,-2.32
2019-01-23T11:20:58.895Z,-2.22
2019-01-23T11:24:04.558Z,-2.20
2019-01-23T11:27:09.686Z,-2.12
2019-01-23T11:30:25.959Z,-2.08
2019-01-23T11:33:31.115Z,-2.19
2019-01-23T11:36:36.331Z,-2.13
2019-01-23T11:39:41.432Z,-2.21
2019-01-23T11:42:46.544Z,-2.35
2019-01-23T11:45:51.723Z,-2.05
2019-01-23T11:48:56.914Z,-2.07
2019-01-23T11:52:02.032Z,-2.40
2019-01-23T11:55:07.691Z,-2.25
2019-01-23T11:58:14.010Z,-2.43
2019-01-23T12:01:19.180Z,-2.49
2019-01-23T12:04:25.368Z,-2.32
2019-01-23T12:07:30.609Z,-2.43
2019-01-23T12:10:35.731Z,-2.28
2019-01-23T12:13:40.908Z,-2.20
2019-01-23T12:16:46.032Z,-2.50
2019-01-23T12:19:51.484Z,-2.30
2019-01-23T12:22:56.623Z,-2.28
2019-01-23T12:26:01.801Z,-2.37
2019-01-23T12:29:06.956Z,-2.17
2019-01-23T12:32:12.136Z,-2.42
2019-01-23T12:35:17.485Z,-2.45
2019-01-23T12:38:22.625Z,-2.50
2019-01-23T12:41:27.762Z,-2.51
2019-01-23T12:44:32.965Z,-2.46
2019-01-23T12:47:38.224Z,-2.50
2019-01-23T12:50:43.363Z,-2.47
2019-01-23T12:53:48.588Z,-2.37
2019-01-23T12:56:53.741Z,-2.52
2019-01-23T13:00:05.122Z,-2.53
2019-01-23T13:03:05.979Z,-2.25
2019-01-23T13:06:11.115Z,-2.47
2019-01-23T13:09:16.268Z,-2.41
2019-01-23T13:12:21.399Z,-2.33
2019-01-23T13:15:27.015Z,-2.42
2019-01-23T13:18:32.199Z,-2.50
2019-01-23T13:21:37.448Z,-2.48
2019-01-23T13:24:42.647Z,-2.46
2019-01-23T13:27:47.911Z,-2.41
2019-01-23T13:30:53.034Z,-2.31
2019-01-23T13:33:58.175Z,-2.25
2019-01-23T13:37:03.333Z,-2.41
2019-01-23T13:40:16.151Z,-2.24
2019-01-23T13:43:22.708Z,-2.20
2019-01-23T13:46:27.927Z,-2.11
2019-01-23T13:49:33.018Z,-2.22
2019-01-23T13:52:38.240Z,-2.25
2019-01-23T13:55:43.422Z,-2.32
2019-01-23T13:58:48.657Z,-2.29
2019-01-23T14:01:56.420Z,-2.39
2019-01-23T14:05:00.629Z,-2.17
2019-01-23T14:08:07.118Z,-2.39
2019-01-23T14:11:12.345Z,-2.52
2019-01-23T14:14:17.534Z,-2.48
2019-01-23T14:17:22.746Z,-2.43
2019-01-23T14:20:27.882Z,-2.54
2019-01-23T14:23:33.003Z,-2.58
2019-01-23T14:26:38.145Z,-2.40
2019-01-23T14:29:43.351Z,-2.40
2019-01-23T14:32:48.504Z,-2.27
2019-01-23T14:35:53.678Z,-2.31
2019-01-23T14:38:58.795Z,-2.16
2019-01-23T14:42:04.089Z,-2.41
2019-01-23T14:45:17.397Z,-2.36
2019-01-23T14:48:22.593Z,-2.33
2019-01-23T14:51:27.832Z,-2.38
2019-01-23T14:54:32.959Z,-2.30
2019-01-23T14:57:38.107Z,-2.51
2019-01-23T15:00:43.301Z,-2.50
2019-01-23T15:03:48.434Z,-2.56
2019-01-23T15:06:53.672Z,-2.61
2019-01-23T15:09:58.785Z,-2.52
2019-01-23T15:13:04.511Z,-2.50
2019-01-23T15:16:09.665Z,-2.47
2019-01-23T15:19:14.787Z,-2.61
2019-01-23T15:22:19.939Z,-2.64
2019-01-23T15:25:25.051Z,-2.60
2019-01-23T15:28:32.229Z,-2.70
2019-01-23T15:31:38.925Z,-2.66
2019-01-23T15:34:44.093Z,-2.62
2019-01-23T15:37:49.465Z,-2.74
2019-01-23T15:40:54.646Z,-2.64
2019-01-23T15:43:59.841Z,-2.84
2019-01-23T15:47:05.118Z,-2.79
2019-01-23T15:50:13.234Z,-2.80
2019-01-23T15:53:20.455Z,-2.89
2019-01-23T15:56:25.620Z,-2.95
2019-01-23T15:59:30.770Z,-2.86
2019-01-23T16:02:37.013Z,-2.82
2019-01-23T16:05:42.228Z,-2.84
2019-01-23T16:08:47.374Z,-2.84
2019-01-23T16:11:52.559Z,-2.81
2019-01-23T16:14:57.688Z,-2.97
2019-01-23T16:18:02.828Z,-2.92
2019-01-23T16:21:07.956Z,-2.98
2019-01-23T16:24:13.248Z,-2.94
2019-01-23T16:27:18.419Z,-2.96
2019-01-23T16:30:35.344Z,-2.86
2019-01-23T16:33:40.603Z,-2.90
2019-01-23T16:36:45.776Z,-3.04
2019-01-23T16:39:50.898Z,-2.84
2019-01-23T16:42:56.063Z,-2.87
2019-01-23T16:46:01.314Z,-2.69
2019-01-23T16:49:06.509Z,-2.87
2019-01-23T16:52:11.677Z,-2.96
2019-01-23T16:55:16.938Z,-3.08
2019-01-23T16:58:22.091Z,-2.91
2019-01-23T17:01:27.267Z,-2.80
2019-01-23T17:04:32.396Z,-2.95
2019-01-23T17:07:37.534Z,-2.79
2019-01-23T17:10:42.642Z,-2.73
2019-01-23T17:13:47.839Z,-2.93
2019-01-23T17:16:52.925Z,-2.90
2019-01-23T17:19:59.275Z,-2.95
2019-01-23T17:23:04.708Z,-2.93
2019-01-23T17:26:09.918Z,-2.96
2019-01-23T17:29:16.318Z,-2.92
2019-01-23T17:32:21.546Z,-2.82
2019-01-23T17:35:26.722Z,-2.78
2019-01-23T17:38:31.905Z,-3.02
2019-01-23T17:41:37.163Z,-3.06
2019-01-23T17:44:42.422Z,-2.91
2019-01-23T17:47:47.623Z,-2.93
2019-01-23T17:50:52.744Z,-3.02
2019-01-23T17:53:57.971Z,-3.03
2019-01-23T17:57:03.119Z,-2.92
2019-01-23T18:00:11.308Z,-2.85
2019-01-23T18:03:16.628Z,-2.88
2019-01-23T18:06:21.789Z,-2.87
2019-01-23T18:09:26.930Z,-2.99
2019-01-23T18:12:32.132Z,-3.01
2019-01-23T18:15:37.348Z,-3.05
2019-01-23T18:18:42.480Z,-2.98
2019-01-23T18:21:47.625Z,-3.06
2019-01-23T18:24:52.744Z,-2.99
2019-01-23T18:27:57.962Z,-2.90
2019-01-23T18:31:13.398Z,-3.06
2019-01-23T18:34:56.481Z,-3.02
2019-01-23T18:38:22.101Z,-2.82
2019-01-23T18:42:06.394Z,-2.89
2019-01-23T18:45:21.659Z,-2.83
2019-01-23T18:49:08.523Z,-2.93
2019-01-23T18:52:14.629Z,-2.85
2019-01-23T18:55:21.413Z,-3.03
2019-01-23T18:58:26.598Z,-3.00
2019-01-23T19:01:31.832Z,-2.99
2019-01-23T19:04:37.145Z,-2.92
2019-01-23T19:07:42.367Z,-2.93
2019-01-23T19:10:47.528Z,-2.97
2019-01-23T19:13:52.623Z,-2.97
2019-01-23T19:16:58.147Z,-2.98
2019-01-23T19:20:04.709Z,-3.01
2019-01-23T19:23:09.881Z,-2.93
2019-01-23T19:26:15.111Z,-3.03
2019-01-23T19:29:20.221Z,-3.11
2019-01-23T19:32:25.400Z,-2.94
2019-01-23T19:35:30.516Z,-2.95
2019-01-23T19:38:35.751Z,-2.83
2019-01-23T19:41:40.955Z,-2.96
2019-01-23T19:44:46.131Z,-3.01
2019-01-23T19:47:51.344Z,-3.03
2019-01-23T19:50:56.575Z,-2.97
2019-01-23T19:54:01.691Z,-3.03
2019-01-23T19:57:06.977Z,-3.15
2019-01-23T20:00:16.220Z,-3.22
2019-01-23T20:03:21.424Z,-3.14
2019-01-23T20:06:26.587Z,-3.02
2019-01-23T20:09:31.753Z,-3.23
2019-01-23T20:12:36.932Z,-3.08
2019-01-23T20:15:42.145Z,-3.17
2019-01-23T20:18:47.377Z,-3.14
2019-01-23T20:21:52.437Z,-3.24
2019-01-23T20:24:57.568Z,-3.02
2019-01-23T20:28:03.898Z,-3.12
2019-01-23T20:31:09.030Z,-3.18
2019-01-23T20:34:14.187Z,-2.96
2019-01-23T20:37:23.361Z,-2.94
2019-01-23T20:40:26.273Z,-3.02
2019-01-23T20:43:33.270Z,-3.00
2019-01-23T20:46:39.576Z,-2.94
2019-01-23T20:49:44.732Z,-3.17
2019-01-23T20:52:49.899Z,-3.06
2019-01-23T20:55:55.154Z,-3.22
2019-01-23T20:59:00.301Z,-3.10
2019-01-23T21:02:05.583Z,-3.17
2019-01-23T21:05:10.841Z,-3.14
2019-01-23T21:08:19.056Z,-3.28
2019-01-23T21:11:24.202Z,-3.35
2019-01-23T21:14:30.019Z,-3.39
2019-01-23T21:17:35.222Z,-3.43
2019-01-23T21:20:41.999Z,-3.51
2019-01-23T21:23:47.228Z,-3.50
2019-01-23T21:26:52.311Z,-3.44
2019-01-23T21:29:57.458Z,-3.12
2019-01-23T21:33:02.717Z,-3.33
2019-01-23T21:36:07.846Z,-3.38
2019-01-23T21:39:13.150Z,-3.47
2019-01-23T21:42:18.301Z,-3.47
2019-01-23T21:45:23.467Z,-3.44
2019-01-23T21:48:28.648Z,-3.45
2019-01-23T21:51:33.906Z,-3.32
2019-01-23T21:54:38.993Z,-3.42
2019-01-23T21:57:44.326Z,-3.43
2019-01-23T22:00:52.491Z,-3.41
2019-01-23T22:03:57.665Z,-3.41
2019-01-23T22:07:02.806Z,-3.45
2019-01-23T22:10:09.197Z,-3.39
2019-01-23T22:13:14.333Z,-3.30
2019-01-23T22:16:19.491Z,-3.48
2019-01-23T22:19:24.635Z,-3.43
2019-01-23T22:22:29.853Z,-3.49
2019-01-23T22:25:35.011Z,-3.43
2019-01-23T22:28:40.126Z,-3.48
2019-01-23T22:31:45.285Z,-3.49
2019-01-23T22:34:50.447Z,-3.48
2019-01-23T22:37:55.567Z,-3.45
2019-01-23T22:41:00.797Z,-3.51
2019-01-23T22:44:05.859Z,-3.30
2019-01-23T22:47:11.073Z,-3.37
2019-01-23T22:50:24.546Z,-3.46
2019-01-23T22:53:29.704Z,-3.44
2019-01-23T22:56:34.902Z,-3.41
2019-01-23T22:59:40.108Z,-3.26
2019-01-23T23:02:45.337Z,-3.37
2019-01-23T23:05:50.426Z,-3.39
2019-01-23T23:08:55.561Z,-3.36
2019-01-23T23:12:00.746Z,-3.42
2019-01-23T23:15:06.640Z,-3.41
2019-01-23T23:18:11.973Z,-3.34
2019-01-23T23:21:17.085Z,-3.39
2019-01-23T23:24:22.298Z,-3.35
2019-01-23T23:27:27.508Z,-3.42
2019-01-23T23:30:32.635Z,-3.36
2019-01-23T23:33:37.771Z,-3.37
2019-01-23T23:36:42.971Z,-3.40
2019-01-23T23:39:48.098Z,-3.36
2019-01-23T23:42:53.395Z,-3.35
2019-01-23T23:45:58.666Z,-3.01
2019-01-23T23:49:03.843Z,-3.26
2019-01-23T23:52:08.940Z,-3.26
2019-01-23T23:55:14.278Z,-3.33
2019-01-23T23:58:19.431Z,-3.37
